Time;durP1;ratioP1;P1;durP2;ratioP2;P2;SDS_P1;SDS_P2;PMS_P1;PMS_P2;Temp;Humidity;BMP_temperature;BMP_pressure;BME280_temperature;BME280_humidity;BME280_pressure;Samples;Min_cycle;Max_cycle;Signal;HPM_P1;HPM_P2
2022/09/20 00:00:19;;;;;;;2.15;0.90;;;;;;;12.36;82.83;100348.69;2055004;28;20057;-70
2022/09/20 00:01:31;;;;;;;2.17;0.70;;;;;;;12.35;82.81;100346.28;2055203;28;20050;-70
2022/09/20 00:02:38;;;;;;;1.77;0.60;;;;;;;12.36;82.82;100354.09;2056520;28;20546;-70
2022/09/20 00:03:46;;;;;;;2.00;0.70;;;;;;;12.36;82.87;100350.56;2054887;28;20054;-70
2022/09/20 00:04:48;;;;;;;1.83;0.70;;;;;;;12.35;82.81;100357.06;2055543;28;20371;-71
2022/09/20 00:05:53;;;;;;;2.88;1.10;;;;;;;12.35;82.94;100354.38;2055106;28;20035;-70
2022/09/20 00:06:58;;;;;;;6.63;1.20;;;;;;;12.36;83.15;100358.66;2055443;28;20046;-70
2022/09/20 00:08:06;;;;;;;1.17;0.68;;;;;;;12.36;83.03;100353.28;2061800;28;20495;-70
2022/09/20 00:09:14;;;;;;;1.00;0.70;;;;;;;12.34;82.97;100350.88;2052619;28;20058;-69
2022/09/20 00:10:21;;;;;;;4.03;0.60;;;;;;;12.33;82.88;100353.88;2056737;28;20046;-69
2022/09/20 00:11:25;;;;;;;1.67;0.90;;;;;;;12.33;83.08;100353.88;2055256;28;20494;-70
2022/09/20 00:12:28;;;;;;;3.42;0.68;;;;;;;12.32;83.02;100349.56;2062400;28;20053;-70
2022/09/20 00:13:32;;;;;;;1.27;0.60;;;;;;;12.31;83.15;100353.38;2071269;28;20458;-70
2022/09/20 00:14:34;;;;;;;1.05;0.70;;;;;;;12.27;82.88;100355.84;2055288;28;20042;-71
2022/09/20 00:15:43;;;;;;;1.08;0.80;;;;;;;12.25;83.00;100349.94;2055428;28;20378;-69
2022/09/20 00:16:47;;;;;;;1.60;0.70;;;;;;;12.24;82.81;100354.56;2062871;28;20094;-70
2022/09/20 00:17:55;;;;;;;1.23;0.50;;;;;;;12.24;82.84;100354.56;2047201;29;20035;-70
2022/09/20 00:18:59;;;;;;;3.50;0.80;;;;;;;12.23;82.85;100349.44;2048678;28;20042;-69
2022/09/20 00:20:05;;;;;;;2.67;0.80;;;;;;;12.25;82.93;100358.84;2055227;28;20039;-70
2022/09/20 00:21:16;;;;;;;1.33;0.57;;;;;;;12.23;82.67;100350.25;2047077;28;20054;-69
2022/09/20 00:22:26;;;;;;;2.33;0.60;;;;;;;12.23;82.69;100354.81;2049301;28;20046;-70
2022/09/20 00:23:49;;;;;;;3.22;0.65;;;;;;;12.20;82.56;100361.63;2050753;28;20367;-70
2022/09/20 00:24:53;;;;;;;2.28;0.50;;;;;;;12.20;82.65;100356.25;2048036;28;20035;-69
2022/09/20 00:26:00;;;;;;;1.27;0.60;;;;;;;12.17;82.55;100356.81;2055680;28;20034;-70
2022/09/20 00:27:05;;;;;;;2.13;0.40;;;;;;;12.18;82.59;100363.00;2056048;28;20831;-69
2022/09/20 00:28:13;;;;;;;0.98;0.55;;;;;;;12.17;82.12;100366.78;2063330;28;20038;-70
2022/09/20 00:29:17;;;;;;;0.80;0.50;;;;;;;12.15;82.20;100359.00;2063023;28;20042;-70
2022/09/20 00:30:19;;;;;;;2.33;0.40;;;;;;;12.15;82.33;100364.41;2047696;28;20035;-69
2022/09/20 00:31:21;;;;;;;1.13;0.57;;;;;;;12.13;82.13;100371.97;2045338;28;20042;-70
2022/09/20 00:32:23;;;;;;;1.13;0.68;;;;;;;12.10;82.21;100361.75;2059875;28;20442;-70
2022/09/20 00:35:06;;;;;;;1.17;0.43;;;;;;;12.09;82.14;100365.56;2055080;28;20043;-69
2022/09/20 00:35:11;;;;;;;0.40;0.38;;;;;;;12.07;82.04;100370.44;2055251;28;20047;-69
2022/09/20 00:36:13;;;;;;;0.73;0.50;;;;;;;12.04;81.98;100371.03;2062989;28;20085;-70
2022/09/20 00:37:16;;;;;;;1.08;0.60;;;;;;;12.05;82.10;100375.34;2039557;28;20056;-70
2022/09/20 00:38:21;;;;;;;1.92;0.50;;;;;;;12.05;81.97;100375.34;2039138;29;20543;-68
2022/09/20 00:39:27;;;;;;;2.22;0.60;;;;;;;12.04;81.80;100371.84;2034372;28;20047;-69
2022/09/20 00:40:29;;;;;;;1.23;0.60;;;;;;;12.06;81.88;100375.03;2039359;29;20039;-69
2022/09/20 00:41:34;;;;;;;1.70;0.47;;;;;;;12.04;81.86;100373.72;2047296;28;20399;-69
2022/09/20 00:42:38;;;;;;;1.45;0.70;;;;;;;12.00;81.64;100373.50;2055875;28;20039;-68
2022/09/20 00:43:45;;;;;;;4.88;0.57;;;;;;;12.00;81.70;100375.41;2054767;28;20110;-70
2022/09/20 00:45:18;;;;;;;5.10;0.50;;;;;;;11.99;81.94;100371.91;2046443;28;20051;-69
2022/09/20 00:46:30;;;;;;;0.75;0.40;;;;;;;11.96;81.88;100375.19;2053065;28;20614;-69
2022/09/20 00:47:40;;;;;;;2.53;0.60;;;;;;;11.95;81.82;100376.28;2062091;28;20053;-70
2022/09/20 00:48:49;;;;;;;1.15;0.60;;;;;;;11.93;81.77;100372.28;2057144;28;20054;-69
2022/09/20 00:50:11;;;;;;;1.73;0.60;;;;;;;11.90;81.75;100378.25;2064968;28;20041;-69
2022/09/20 00:51:22;;;;;;;0.40;0.40;;;;;;;11.89;81.71;100382.06;2072878;28;20046;-68
2022/09/20 00:52:36;;;;;;;1.38;0.52;;;;;;;11.88;81.75;100380.44;2070536;28;20057;-70
2022/09/20 00:53:43;;;;;;;1.00;0.47;;;;;;;11.88;81.61;100381.22;2072720;28;20421;-69
2022/09/20 00:54:48;;;;;;;1.25;0.60;;;;;;;11.86;81.46;100375.34;2058997;28;20031;-68
2022/09/20 00:56:18;;;;;;;0.80;0.50;;;;;;;11.85;81.95;100381.00;2065066;28;20046;-68
2022/09/20 00:57:20;;;;;;;0.90;0.50;;;;;;;11.83;81.65;100368.59;2059140;28;20038;-69
2022/09/20 00:58:31;;;;;;;0.40;0.32;;;;;;;11.82;81.65;100376.97;2064873;28;20034;-68
2022/09/20 00:59:38;;;;;;;3.33;0.40;;;;;;;11.80;81.80;100379.97;2071436;28;20058;-68
2022/09/20 01:00:42;;;;;;;1.10;0.50;;;;;;;11.79;81.88;100383.75;2064883;28;20042;-68
2022/09/20 01:01:48;;;;;;;1.00;0.55;;;;;;;11.80;81.97;100376.47;2064573;28;20045;-68
2022/09/20 01:02:57;;;;;;;2.17;0.47;;;;;;;11.79;81.69;100378.38;2064918;28;20515;-68
2022/09/20 01:04:06;;;;;;;0.82;0.63;;;;;;;11.78;81.89;100381.34;2072559;28;20030;-68
2022/09/20 01:05:09;;;;;;;2.10;0.50;;;;;;;11.77;81.68;100388.63;2063451;28;20053;-68
2022/09/20 01:06:14;;;;;;;0.70;0.45;;;;;;;11.77;81.76;100390.53;2048534;29;20039;-69
2022/09/20 01:07:26;;;;;;;2.90;0.68;;;;;;;11.75;81.66;100388.09;2049156;28;20470;-70
2022/09/20 01:08:28;;;;;;;1.20;0.55;;;;;;;11.75;81.53;100388.09;2069227;28;20037;-70
2022/09/20 01:09:30;;;;;;;1.08;0.60;;;;;;;11.75;81.76;100388.09;2072120;28;20056;-70
2022/09/20 01:10:33;;;;;;;2.05;0.40;;;;;;;11.74;81.65;100386.50;2065305;28;20068;-69
2022/09/20 01:11:39;;;;;;;1.35;0.73;;;;;;;11.76;81.82;100389.72;2064111;28;20624;-69
2022/09/20 01:12:44;;;;;;;2.22;0.60;;;;;;;11.78;81.57;100387.53;2059201;28;20050;-69
2022/09/20 01:13:47;;;;;;;1.65;0.50;;;;;;;11.80;81.47;100387.25;2064573;28;20426;-69
2022/09/20 01:14:53;;;;;;;2.10;0.50;;;;;;;11.80;81.59;100390.75;2064627;28;20038;-69
2022/09/20 01:15:59;;;;;;;1.65;0.70;;;;;;;11.78;81.44;100387.53;2064663;28;20522;-68
2022/09/20 01:17:06;;;;;;;1.10;0.63;;;;;;;11.79;81.63;100388.31;2065327;28;20042;-69
2022/09/20 01:18:12;;;;;;;1.40;0.70;;;;;;;11.79;81.63;100381.06;2064177;28;20065;-69
2022/09/20 01:19:32;;;;;;;3.85;0.65;;;;;;;11.79;81.72;100382.94;2057604;28;20390;-69
2022/09/20 01:20:41;;;;;;;1.88;0.90;;;;;;;11.77;81.59;100385.94;2064616;28;20049;-68
2022/09/20 01:21:45;;;;;;;3.13;0.55;;;;;;;11.77;81.59;100391.31;2057646;28;20043;-68
2022/09/20 01:23:06;;;;;;;0.82;0.50;;;;;;;11.74;81.55;100391.91;2064671;28;20049;-68
2022/09/20 01:24:23;;;;;;;1.10;0.40;;;;;;;11.76;81.71;100387.03;2066826;28;20061;-68
2022/09/20 01:25:42;;;;;;;0.73;0.40;;;;;;;11.71;81.94;100391.69;2067575;28;20050;-68
2022/09/20 01:27:18;;;;;;;2.50;0.60;;;;;;;11.73;81.69;100387.63;2064535;28;20042;-68
2022/09/20 01:28:22;;;;;;;0.80;0.40;;;;;;;11.76;81.99;100395.13;2064315;28;20031;-69
2022/09/20 01:29:36;;;;;;;0.95;0.40;;;;;;;11.78;82.00;100397.50;2056267;28;20042;-68
2022/09/20 01:30:53;;;;;;;0.60;0.60;;;;;;;11.73;82.23;100406.47;2066277;28;20062;-70
2022/09/20 01:32:02;;;;;;;2.75;0.50;;;;;;;11.67;82.50;100404.13;2054657;28;20034;-70
2022/09/20 01:33:23;;;;;;;3.33;0.50;;;;;;;11.73;82.33;100401.09;2049687;28;20051;-68
2022/09/20 01:34:35;;;;;;;2.35;0.50;;;;;;;11.78;82.46;100403.69;2057059;28;20065;-70
2022/09/20 01:35:44;;;;;;;2.63;0.30;;;;;;;11.78;82.36;100398.31;2062711;28;20045;-70
2022/09/20 01:37:13;;;;;;;0.93;0.45;;;;;;;11.79;82.44;100401.78;2067680;28;20042;-70
2022/09/20 01:38:23;;;;;;;1.70;0.50;;;;;;;11.83;82.40;100400.94;2059736;28;20049;-70
2022/09/20 01:40:03;;;;;;;0.88;0.50;;;;;;;11.86;82.26;100399.59;2072418;28;20042;-70
2022/09/20 01:41:19;;;;;;;1.27;0.38;;;;;;;11.81;82.29;100408.50;2064109;28;20053;-70
2022/09/20 01:42:29;;;;;;;2.05;0.60;;;;;;;11.77;82.29;100401.28;2064742;28;20034;-70
2022/09/20 01:43:50;;;;;;;2.80;0.52;;;;;;;11.77;82.45;100394.00;2056432;28;20049;-70
2022/09/20 01:45:02;;;;;;;1.08;0.50;;;;;;;11.79;82.66;100394.53;2059190;28;20030;-70
2022/09/20 01:46:32;;;;;;;3.20;0.50;;;;;;;11.75;82.32;100393.50;2062854;28;20050;-70
2022/09/20 01:47:45;;;;;;;0.63;0.43;;;;;;;11.73;82.57;100392.19;2048252;28;20050;-70
2022/09/20 01:48:56;;;;;;;2.60;0.50;;;;;;;11.75;82.78;100393.50;2052360;28;20055;-70
2022/09/20 01:50:24;;;;;;;2.30;1.38;;;;;;;11.78;82.84;100384.03;2063955;28;20039;-70
2022/09/20 01:52:00;;;;;;;1.77;0.68;;;;;;;11.76;82.80;100387.03;2072644;28;20068;-70
2022/09/20 01:53:06;;;;;;;2.38;0.70;;;;;;;11.76;82.92;100387.03;2033528;28;20040;-70
2022/09/20 01:54:11;;;;;;;1.73;0.60;;;;;;;11.76;82.93;100387.03;2057123;28;20034;-70
2022/09/20 01:55:49;;;;;;;1.20;0.52;;;;;;;11.77;83.05;100385.94;2056667;28;20043;-69
2022/09/20 01:57:02;;;;;;;2.47;0.50;;;;;;;11.79;82.88;100377.53;2069322;28;20029;-70
2022/09/20 01:58:15;;;;;;;1.65;0.40;;;;;;;11.78;83.01;100381.34;2061377;28;20045;-70
2022/09/20 01:59:37;;;;;;;1.10;0.45;;;;;;;11.78;83.05;100386.72;2063881;28;20050;-70
2022/09/20 02:01:23;;;;;;;5.10;0.65;;;;;;;11.76;82.87;100378.94;2064460;28;20038;-70
2022/09/20 02:03:05;;;;;;;0.50;0.40;;;;;;;11.71;82.67;100370.94;2059845;28;20085;-70
2022/09/20 02:04:26;;;;;;;1.15;0.50;;;;;;;11.73;82.88;100378.75;2034419;29;20108;-70
2022/09/20 02:05:57;;;;;;;3.30;0.68;;;;;;;11.71;82.94;100381.72;2067132;28;20057;-70
2022/09/20 02:07:48;;;;;;;0.80;0.50;;;;;;;11.67;82.54;100380.69;2071939;28;20046;-69
2022/09/20 02:08:59;;;;;;;0.95;0.40;;;;;;;11.67;82.55;100383.38;2065899;28;20050;-70
2022/09/20 02:10:27;;;;;;;3.50;0.70;;;;;;;11.66;82.45;100378.28;2064719;28;20050;-69
2022/09/20 02:12:08;;;;;;;1.73;0.47;;;;;;;11.63;82.41;100385.03;2056235;28;20053;-70
2022/09/20 02:13:28;;;;;;;0.47;0.40;;;;;;;11.60;82.49;100391.81;2048786;28;20043;-70
2022/09/20 02:14:34;;;;;;;1.20;0.50;;;;;;;11.61;82.39;100392.63;2058372;28;20055;-70
2022/09/20 02:16:02;;;;;;;2.05;0.50;;;;;;;11.59;82.62;100390.19;2057061;28;20051;-70
2022/09/20 02:17:30;;;;;;;0.60;0.47;;;;;;;11.59;82.41;100395.59;2067693;28;20389;-70
2022/09/20 02:18:37;;;;;;;1.67;0.40;;;;;;;11.59;82.44;100398.28;2054414;28;20050;-70
2022/09/20 02:20:05;;;;;;;2.65;0.43;;;;;;;11.55;82.22;100393.78;2049344;28;20055;-70
2022/09/20 02:21:39;;;;;;;0.63;0.40;;;;;;;11.55;82.38;100396.47;2052063;28;20057;-70
2022/09/20 02:23:06;;;;;;;4.15;0.60;;;;;;;11.51;82.52;100395.44;2060842;28;20064;-69
2022/09/20 02:24:43;;;;;;;1.33;0.70;;;;;;;11.51;82.18;100393.56;2064240;28;20046;-70
2022/09/20 02:26:02;;;;;;;0.90;0.50;;;;;;;11.47;82.38;100400.59;2072250;28;20592;-69
2022/09/20 02:27:24;;;;;;;0.80;0.40;;;;;;;11.44;82.31;100393.06;2069837;28;20117;-69
2022/09/20 02:29:20;;;;;;;2.78;0.50;;;;;;;11.46;82.41;100395.50;2062870;28;20058;-69
2022/09/20 02:30:27;;;;;;;2.33;0.40;;;;;;;11.44;82.44;100397.66;2032461;29;20052;-70
2022/09/20 02:32:03;;;;;;;0.93;0.50;;;;;;;11.44;82.54;100397.66;2052269;28;20038;-71
2022/09/20 02:33:36;;;;;;;1.25;0.47;;;;;;;11.44;82.70;100403.06;2064045;28;20034;-70
2022/09/20 02:34:38;;;;;;;1.20;0.50;;;;;;;11.41;82.49;100403.63;2064085;28;20042;-69
2022/09/20 02:36:00;;;;;;;0.68;0.50;;;;;;;11.42;82.45;100397.16;2062056;28;20064;-69
2022/09/20 02:37:42;;;;;;;0.90;0.50;;;;;;;11.43;82.61;100398.78;2065602;28;20069;-69
2022/09/20 02:39:50;;;;;;;0.70;0.45;;;;;;;11.46;82.45;100411.66;2064088;28;20042;-70
2022/09/20 02:41:13;;;;;;;1.70;0.55;;;;;;;11.48;82.41;100398.72;2031824;29;20032;-69
2022/09/20 02:42:40;;;;;;;0.57;0.38;;;;;;;11.48;82.69;100404.91;2061381;28;20061;-70
2022/09/20 02:44:00;;;;;;;2.47;1.23;;;;;;;11.44;82.92;100403.06;2060465;28;20399;-69
2022/09/20 02:45:13;;;;;;;0.73;0.32;;;;;;;11.46;82.89;100404.38;2056130;28;20030;-69
2022/09/20 02:46:52;;;;;;;0.73;0.40;;;;;;;11.47;82.73;100403.28;2056562;28;20051;-70
2022/09/20 02:48:19;;;;;;;2.35;0.30;;;;;;;11.44;82.60;100403.06;2070859;28;20041;-69
2022/09/20 02:49:40;;;;;;;0.68;0.47;;;;;;;11.40;82.85;100407.41;2068138;28;20046;-70
2022/09/20 02:51:11;;;;;;;1.38;0.40;;;;;;;11.40;82.96;100404.72;2067036;28;20042;-68
2022/09/20 02:52:55;;;;;;;0.82;0.40;;;;;;;11.40;82.65;100402.03;2063896;28;20046;-70
2022/09/20 02:54:26;;;;;;;1.75;0.52;;;;;;;11.36;82.93;100399.13;2064261;28;20034;-69
2022/09/20 02:55:32;;;;;;;0.65;0.40;;;;;;;11.39;82.92;100405.81;2061398;28;20042;-70
2022/09/20 02:56:53;;;;;;;1.08;0.60;;;;;;;11.32;83.06;100396.19;2064238;28;20042;-69
2022/09/20 02:58:29;;;;;;;0.85;0.40;;;;;;;11.33;82.69;100408.56;2070957;28;20037;-70
2022/09/20 02:59:43;;;;;;;1.35;0.38;;;;;;;11.31;83.19;100408.03;2047465;29;20062;-70
2022/09/20 03:01:14;;;;;;;0.63;0.43;;;;;;;11.29;83.15;100404.84;2057469;28;20042;-70
2022/09/20 03:02:22;;;;;;;1.77;0.55;;;;;;;11.30;83.07;100411.81;2059158;28;20057;-70
2022/09/20 03:03:49;;;;;;;0.65;0.40;;;;;;;11.29;82.67;100412.94;2048359;28;20377;-69
2022/09/20 03:05:10;;;;;;;0.60;0.30;;;;;;;11.30;82.97;100413.72;2054948;28;20417;-69
2022/09/20 03:06:35;;;;;;;5.47;0.55;;;;;;;11.30;83.08;100419.91;2058596;28;20046;-69
2022/09/20 03:07:54;;;;;;;2.88;0.43;;;;;;;11.30;83.18;100414.53;2056713;28;20045;-69
2022/09/20 03:09:37;;;;;;;1.25;0.60;;;;;;;11.31;83.07;100413.41;2058038;28;20045;-69
2022/09/20 03:11:06;;;;;;;0.52;0.43;;;;;;;11.33;82.96;100408.56;2026779;29;20047;-69
2022/09/20 03:12:27;;;;;;;1.92;0.40;;;;;;;11.34;82.93;100412.84;2051048;28;20066;-69
2022/09/20 03:14:07;;;;;;;1.65;0.32;;;;;;;11.30;83.25;100414.53;2063740;28;20085;-70
2022/09/20 03:15:11;;;;;;;0.60;0.38;;;;;;;11.26;83.20;100410.00;2053385;28;20534;-69
2022/09/20 03:16:57;;;;;;;0.77;0.43;;;;;;;11.30;83.23;100411.03;2055868;28;20046;-69
2022/09/20 03:18:30;;;;;;;2.45;0.90;;;;;;;11.29;83.41;100409.44;2061510;28;20281;-69
2022/09/20 03:19:45;;;;;;;0.55;0.40;;;;;;;11.30;83.20;100411.81;2055647;28;20051;-69
2022/09/20 03:21:28;;;;;;;1.80;0.50;;;;;;;11.33;83.56;100407.75;2055954;28;20038;-68
2022/09/20 03:22:39;;;;;;;1.25;0.40;;;;;;;11.33;83.60;100413.94;2063641;28;20050;-69
2022/09/20 03:23:58;;;;;;;2.53;0.50;;;;;;;11.32;83.28;100417.72;2057049;28;20047;-69
2022/09/20 03:25:12;;;;;;;2.25;0.60;;;;;;;11.30;83.16;100417.22;2059192;28;20049;-69
2022/09/20 03:26:41;;;;;;;0.47;0.30;;;;;;;11.31;83.30;100418.81;2064118;28;20312;-68
2022/09/20 03:27:57;;;;;;;0.80;0.30;;;;;;;11.29;83.25;100418.31;2064520;28;20034;-70
2022/09/20 03:29:04;;;;;;;2.85;0.40;;;;;;;11.29;83.41;100422.91;2071930;28;20280;-70
2022/09/20 03:30:46;;;;;;;3.78;0.50;;;;;;;11.28;83.25;100416.69;2070460;28;20049;-70
2022/09/20 03:32:18;;;;;;;0.50;0.43;;;;;;;11.27;83.51;100425.84;2059352;28;20031;-70
2022/09/20 03:33:48;;;;;;;0.50;0.40;;;;;;;11.28;83.44;100422.06;2055743;28;20603;-70
2022/09/20 03:35:05;;;;;;;;;;;;;;;11.28;83.65;100424.75;2042549;29;20283;-70
2022/09/20 03:36:33;;;;;;;1.80;0.47;;;;;;;11.25;83.41;100427.22;2063792;28;19997;-70
2022/09/20 03:37:49;;;;;;;0.93;0.45;;;;;;;11.17;83.20;100425.97;2055508;28;20051;-70
2022/09/20 03:39:24;;;;;;;3.30;0.40;;;;;;;11.14;83.44;100432.72;2057177;28;20026;-70
2022/09/20 03:40:50;;;;;;;1.08;0.50;;;;;;;11.15;83.62;100428.13;2063011;28;20046;-70
2022/09/20 03:42:15;;;;;;;0.50;0.30;;;;;;;11.17;83.30;100438.63;2054991;28;20078;-70
2022/09/20 03:43:48;;;;;;;1.60;0.30;;;;;;;11.16;83.46;100432.44;2061802;28;20044;-70
2022/09/20 03:45:24;;;;;;;2.80;0.45;;;;;;;11.17;83.65;100433.25;2062874;28;20645;-70
2022/09/20 03:46:31;;;;;;;0.55;0.55;;;;;;;11.14;83.70;100437.31;2058895;28;20057;-70
2022/09/20 03:47:47;;;;;;;0.50;0.40;;;;;;;11.13;83.54;100436.50;2055510;28;20045;-69
2022/09/20 03:49:29;;;;;;;4.63;0.55;;;;;;;11.14;83.54;100434.63;2056584;28;20054;-68
2022/09/20 03:50:55;;;;;;;2.47;0.50;;;;;;;11.12;83.61;100436.78;2051633;28;20046;-69
2022/09/20 03:52:02;;;;;;;0.95;0.40;;;;;;;11.11;83.48;100438.66;2057864;28;20042;-69
2022/09/20 03:53:25;;;;;;;1.58;0.60;;;;;;;11.12;83.15;100442.16;2054483;28;20479;-68
2022/09/20 03:54:30;;;;;;;3.90;0.60;;;;;;;11.11;83.27;100437.88;2061932;28;20164;-68
2022/09/20 03:55:55;;;;;;;1.70;0.60;;;;;;;11.10;83.40;100441.66;2059774;28;20061;-68
2022/09/20 03:57:05;;;;;;;0.50;0.50;;;;;;;11.09;83.02;100445.41;2058100;28;20049;-68
2022/09/20 03:58:49;;;;;;;1.15;0.50;;;;;;;11.10;83.41;100449.72;2054619;28;20034;-68
2022/09/20 04:00:14;;;;;;;1.85;0.50;;;;;;;11.07;83.38;100447.59;2054331;28;20043;-69
2022/09/20 04:01:20;;;;;;;0.80;0.47;;;;;;;11.07;83.40;100444.91;2055043;28;20046;-68
2022/09/20 04:02:36;;;;;;;1.13;0.50;;;;;;;11.08;83.54;100449.22;2054728;28;20057;-69
2022/09/20 04:03:52;;;;;;;2.35;0.40;;;;;;;11.05;83.39;100447.09;2062198;28;20482;-68
2022/09/20 04:05:02;;;;;;;0.50;0.40;;;;;;;11.05;83.24;100449.78;2056280;28;20030;-68
2022/09/20 04:06:16;;;;;;;2.17;0.68;;;;;;;11.04;83.37;100453.56;2061401;28;20047;-69
2022/09/20 04:07:50;;;;;;;2.67;0.63;;;;;;;11.04;83.04;100448.97;2067932;28;20048;-68
2022/09/20 04:08:57;;;;;;;1.42;0.60;;;;;;;11.04;83.29;100448.19;2057399;28;20646;-68
2022/09/20 04:10:12;;;;;;;1.50;0.50;;;;;;;11.05;82.88;100457.84;2061479;28;20038;-69
2022/09/20 04:11:43;;;;;;;0.75;0.40;;;;;;;11.04;83.01;100454.34;2061733;28;20038;-69
2022/09/20 04:13:22;;;;;;;0.90;0.70;;;;;;;11.04;83.45;100458.94;2061288;28;20057;-69
2022/09/20 04:14:42;;;;;;;0.77;0.68;;;;;;;10.99;83.33;100451.69;2058447;28;20042;-68
2022/09/20 04:16:05;;;;;;;1.90;0.60;;;;;;;11.00;83.06;100457.88;2047179;28;20042;-67
2022/09/20 04:17:57;;;;;;;1.00;0.50;;;;;;;10.99;83.26;100456.28;2050101;28;20042;-68
2022/09/20 04:19:18;;;;;;;1.27;0.50;;;;;;;10.97;83.49;100459.28;2039259;28;20050;-68
2022/09/20 04:20:45;;;;;;;1.75;0.55;;;;;;;10.97;83.31;100458.44;2059837;28;20041;-69
2022/09/20 04:21:52;;;;;;;0.93;0.43;;;;;;;10.96;83.29;100465.72;2054455;28;20395;-69
2022/09/20 04:22:59;;;;;;;3.05;0.98;;;;;;;10.95;83.19;100460.63;2054107;28;20297;-68
2022/09/20 04:24:09;;;;;;;1.58;0.60;;;;;;;10.90;83.54;100459.56;2062082;28;20398;-68
2022/09/20 04:25:16;;;;;;;1.52;0.60;;;;;;;10.93;83.24;100462.78;2061395;28;20054;-67
2022/09/20 04:26:25;;;;;;;3.35;1.50;;;;;;;10.93;83.43;100463.59;2062006;28;20038;-67
2022/09/20 04:28:00;;;;;;;1.67;0.50;;;;;;;10.95;83.32;100463.31;2061953;28;20053;-68
2022/09/20 04:29:30;;;;;;;2.70;0.73;;;;;;;10.91;83.47;100471.16;2053886;28;20042;-67
2022/09/20 04:30:42;;;;;;;1.08;0.60;;;;;;;10.93;83.89;100466.28;2045301;28;20039;-68
2022/09/20 04:31:51;;;;;;;0.80;0.47;;;;;;;10.94;83.91;100470.59;2052276;28;20043;-68
2022/09/20 04:33:02;;;;;;;3.95;0.68;;;;;;;10.97;83.68;100474.59;2067278;28;20347;-68
2022/09/20 04:34:15;;;;;;;3.30;0.80;;;;;;;10.86;83.77;100477.38;2068288;28;20284;-68
2022/09/20 04:37:02;;;;;;;1.60;0.50;;;;;;;10.91;84.28;100476.53;2053302;28;20294;-69
2022/09/20 04:38:11;;;;;;;0.70;0.40;;;;;;;10.94;83.65;100475.97;2053187;28;20294;-70
2022/09/20 04:39:27;;;;;;;1.63;0.50;;;;;;;10.98;83.55;100478.91;2053143;28;20051;-69
2022/09/20 04:41:10;;;;;;;2.78;0.60;;;;;;;11.00;84.00;100484.78;2053905;28;20317;-69
2022/09/20 04:43:05;;;;;;;1.05;0.50;;;;;;;11.00;84.27;100490.16;2052926;28;20058;-68
2022/09/20 04:44:40;;;;;;;2.75;0.47;;;;;;;10.98;83.99;100481.59;2060297;28;20053;-68
2022/09/20 04:46:09;;;;;;;1.85;0.70;;;;;;;10.94;84.20;100483.22;2053866;28;20289;-69
2022/09/20 04:47:15;;;;;;;0.65;0.45;;;;;;;10.95;83.84;100485.66;2062278;28;20060;-69
2022/09/20 04:48:55;;;;;;;1.00;0.70;;;;;;;10.98;84.10;100482.38;2062001;28;20273;-70
2022/09/20 04:50:05;;;;;;;0.68;0.40;;;;;;;10.96;84.34;100489.13;2058808;28;20289;-68
2022/09/20 04:51:39;;;;;;;0.82;0.70;;;;;;;10.96;84.02;100483.75;2054847;28;20544;-70
2022/09/20 04:53:06;;;;;;;2.40;0.75;;;;;;;11.02;84.08;100482.63;2066858;28;20049;-69
2022/09/20 04:54:38;;;;;;;0.70;0.50;;;;;;;11.08;84.25;100481.50;2065438;28;20070;-69
2022/09/20 04:55:54;;;;;;;3.95;0.55;;;;;;;11.11;84.29;100476.34;2061982;28;20048;-70
2022/09/20 04:57:38;;;;;;;2.45;0.60;;;;;;;11.15;84.29;100479.25;2047998;28;20287;-70
2022/09/20 04:59:04;;;;;;;3.08;0.70;;;;;;;11.19;84.35;100483.00;2026177;29;20049;-69
2022/09/20 05:00:16;;;;;;;3.75;0.70;;;;;;;11.21;84.31;100491.59;2044487;28;20290;-70
2022/09/20 05:01:44;;;;;;;1.95;0.80;;;;;;;11.21;84.07;100483.50;2047381;28;20038;-69
2022/09/20 05:03:09;;;;;;;2.58;1.08;;;;;;;11.27;84.04;100487.75;2057432;28;20061;-70
2022/09/20 05:04:38;;;;;;;1.70;0.60;;;;;;;11.28;83.98;100483.97;2053764;28;20127;-70
2022/09/20 05:06:15;;;;;;;0.85;0.60;;;;;;;11.31;84.22;100486.09;2049638;28;20046;-70
2022/09/20 05:07:46;;;;;;;1.35;0.63;;;;;;;11.34;84.13;100490.09;2054264;28;20035;-70
2022/09/20 05:09:25;;;;;;;1.42;0.77;;;;;;;11.29;84.06;100499.06;2050582;28;20521;-70
2022/09/20 05:10:51;;;;;;;5.05;0.70;;;;;;;11.35;84.11;100489.03;2045604;29;20130;-70
2022/09/20 05:11:52;;;;;;;2.60;0.65;;;;;;;11.42;84.04;100496.78;2043785;28;20426;-70
2022/09/20 05:13:16;;;;;;;3.15;0.60;;;;;;;11.45;84.09;100491.63;2053563;28;20486;-70
2022/09/20 05:14:46;;;;;;;2.38;0.52;;;;;;;11.44;83.98;100500.75;2053431;28;20790;-70
2022/09/20 05:15:50;;;;;;;0.90;0.45;;;;;;;11.46;83.96;100501.28;2040770;29;20058;-70
2022/09/20 05:17:15;;;;;;;0.60;0.50;;;;;;;11.51;83.80;100505.84;2042779;28;20098;-70
2022/09/20 05:18:35;;;;;;;3.05;0.93;;;;;;;11.54;83.81;100499.88;2048597;28;20309;-69
2022/09/20 05:19:49;;;;;;;2.03;0.68;;;;;;;11.57;83.75;100507.38;2052940;28;20047;-70
2022/09/20 05:21:18;;;;;;;2.47;0.80;;;;;;;11.60;83.77;100502.22;2045526;28;20043;-69
2022/09/20 05:22:53;;;;;;;1.25;0.65;;;;;;;11.53;83.25;100507.13;2058532;28;20030;-69
2022/09/20 05:24:04;;;;;;;1.80;0.70;;;;;;;11.57;83.43;100507.38;2060755;28;20053;-68
2022/09/20 05:25:24;;;;;;;1.20;0.63;;;;;;;11.59;83.14;100510.56;2038321;29;20044;-69
2022/09/20 05:26:38;;;;;;;4.63;0.88;;;;;;;11.60;83.09;100515.69;2053267;28;20184;-69
2022/09/20 05:27:52;;;;;;;2.30;0.80;;;;;;;11.65;82.95;100512.13;2068212;28;20053;-69
2022/09/20 05:29:34;;;;;;;2.72;0.70;;;;;;;11.77;82.57;100515.22;2057688;28;20039;-69
2022/09/20 05:30:45;;;;;;;2.25;0.90;;;;;;;11.91;82.36;100512.66;2060465;28;20061;-68
2022/09/20 05:32:11;;;;;;;3.10;0.85;;;;;;;12.08;81.80;100514.88;2058883;28;20051;-68
2022/09/20 05:33:12;;;;;;;1.63;0.73;;;;;;;12.16;81.68;100510.72;2058968;28;20039;-68
2022/09/20 05:34:43;;;;;;;1.80;0.88;;;;;;;12.17;81.57;100520.41;2062455;28;20402;-69
2022/09/20 05:35:57;;;;;;;;;;;;;;;12.22;81.18;100518.47;2034269;28;20040;-69
2022/09/20 05:37:09;;;;;;;2.70;0.98;;;;;;;12.25;81.16;100517.09;2057408;28;19926;-68
2022/09/20 05:38:23;;;;;;;3.25;0.73;;;;;;;12.29;81.05;100521.63;2063282;28;20042;-68
2022/09/20 05:39:37;;;;;;;2.90;0.70;;;;;;;12.38;80.71;100529.03;2062061;28;20038;-68
2022/09/20 05:41:08;;;;;;;4.28;0.68;;;;;;;12.39;80.57;100526.06;2063422;28;20049;-69
2022/09/20 05:42:31;;;;;;;1.63;0.82;;;;;;;12.56;80.12;100525.53;2060026;28;20045;-69
2022/09/20 05:43:42;;;;;;;3.95;0.60;;;;;;;12.60;80.05;100521.16;2063328;28;20117;-68
2022/09/20 05:45:03;;;;;;;1.83;0.80;;;;;;;12.60;79.99;100526.56;2047269;29;20050;-69
2022/09/20 05:46:22;;;;;;;1.83;0.80;;;;;;;12.61;79.72;100528.19;2053442;28;20647;-69
2022/09/20 05:47:42;;;;;;;2.57;0.73;;;;;;;12.64;79.63;100527.59;2054984;28;20050;-69
2022/09/20 05:49:13;;;;;;;1.80;0.63;;;;;;;12.80;79.13;100530.84;2049581;28;20286;-69
2022/09/20 05:50:48;;;;;;;3.00;0.88;;;;;;;12.71;78.87;100533.41;2057490;28;20057;-68
2022/09/20 05:52:01;;;;;;;1.02;0.70;;;;;;;12.70;78.94;100536.38;2063426;28;20042;-70
2022/09/20 05:53:33;;;;;;;2.92;0.60;;;;;;;12.80;78.61;100528.16;2063854;28;20174;-69
2022/09/20 05:55:05;;;;;;;1.23;0.77;;;;;;;14.02;76.35;100535.16;2058768;28;20046;-69
2022/09/20 05:56:19;;;;;;;1.10;0.68;;;;;;;15.98;71.51;100534.47;2058655;28;20050;-72
2022/09/20 05:57:38;;;;;;;1.70;0.60;;;;;;;15.84;71.23;100530.28;2054968;28;20046;-70
2022/09/20 05:58:56;;;;;;;1.95;0.82;;;;;;;16.02;70.06;100531.13;2052223;28;20518;-70
2022/09/20 06:00:09;;;;;;;0.70;0.70;;;;;;;16.10;69.42;100533.84;2065339;28;20096;-70
2022/09/20 06:01:25;;;;;;;1.77;0.60;;;;;;;15.64;70.02;100531.63;2062620;28;20445;-70
2022/09/20 06:02:38;;;;;;;1.52;0.60;;;;;;;17.04;67.16;100533.41;2063287;28;20418;-70
2022/09/20 06:03:54;;;;;;;1.92;0.60;;;;;;;18.68;63.31;100534.53;2071146;28;20037;-70
2022/09/20 06:05:16;;;;;;;4.03;0.90;;;;;;;20.00;59.74;100532.00;2055030;28;20039;-73
2022/09/20 06:06:43;;;;;;;2.35;0.93;;;;;;;20.64;58.05;100533.13;2061075;28;20038;-70
2022/09/20 06:07:51;;;;;;;4.50;0.70;;;;;;;21.08;56.64;100533.16;2062233;28;20053;-69
2022/09/20 06:09:08;;;;;;;3.25;0.70;;;;;;;21.52;54.82;100544.88;2062865;28;20413;-71